Time;durP1;ratioP1;P1;durP2;ratioP2;P2;SDS_P1;SDS_P2;PMS_P1;PMS_P2;Temp;Humidity;BMP_temperature;BMP_pressure;BME280_temperature;BME280_humidity;BME280_pressure;Samples;Min_cycle;Max_cycle;Signal;HPM_P1;HPM_P2
2021/11/08 00:01:16;;;;;;;3.97;0.40;;;;;;;;;;5070067;28;20025;-65
2021/11/08 00:03:46;;;;;;;1.07;0.30;;;;;;;;;;5071921;28;20027;-66
2021/11/08 00:06:15;;;;;;;0.53;0.30;;;;;;;;;;5072313;28;20363;-65
2021/11/08 00:08:42;;;;;;;0.90;0.40;;;;;;;;;;5072080;28;20108;-66
2021/11/08 00:11:09;;;;;;;3.63;0.57;;;;;;;;;;5054079;28;20383;-65
2021/11/08 00:13:37;;;;;;;1.03;0.50;;;;;;;;;;5068474;28;20476;-64
2021/11/08 00:21:36;;;;;;;6.67;1.77;;;;;;;;;;5059077;28;20094;-64
2021/11/08 00:24:05;;;;;;;1.97;0.97;;;;;;;;;;5071099;28;20025;-66
2021/11/08 00:26:32;;;;;;;2.27;1.03;;;;;;;;;;5072019;28;20036;-68
2021/11/08 00:28:59;;;;;;;1.77;0.97;;;;;;;;;;5072203;28;20449;-66
2021/11/08 00:31:26;;;;;;;6.83;1.60;;;;;;;;;;5072064;28;20025;-66
2021/11/08 00:33:53;;;;;;;5.93;1.90;;;;;;;;;;5071292;28;20029;-67
2021/11/08 00:36:20;;;;;;;3.47;1.50;;;;;;;;;;5067182;28;20032;-67
2021/11/08 00:38:47;;;;;;;2.17;1.03;;;;;;;;;;5066985;28;20028;-66
2021/11/08 00:41:14;;;;;;;2.70;1.20;;;;;;;;;;5066965;28;20020;-66
2021/11/08 00:43:41;;;;;;;2.60;1.20;;;;;;;;;;5066223;28;20024;-67
2021/11/08 00:46:08;;;;;;;2.60;1.27;;;;;;;;;;5070690;28;20047;-66
2021/11/08 00:48:36;;;;;;;6.70;1.90;;;;;;;;;;5071487;28;20024;-66
2021/11/08 00:51:04;;;;;;;5.20;1.70;;;;;;;;;;5071321;28;20417;-67
2021/11/08 00:53:32;;;;;;;7.20;1.27;;;;;;;;;;5072041;28;20482;-66
2021/11/08 00:56:02;;;;;;;6.87;1.80;;;;;;;;;;5071999;28;20017;-66
2021/11/08 00:58:34;;;;;;;6.10;1.97;;;;;;;;;;5067042;28;20028;-67
2021/11/08 01:01:06;;;;;;;6.63;2.40;;;;;;;;;;5066789;28;20020;-66
2021/11/08 01:03:35;;;;;;;5.73;2.47;;;;;;;;;;5065887;28;20037;-66
2021/11/08 01:06:02;;;;;;;5.47;1.77;;;;;;;;;;5066205;28;20024;-66
2021/11/08 01:08:30;;;;;;;5.57;2.07;;;;;;;;;;5070531;28;20024;-66
2021/11/08 01:10:57;;;;;;;8.17;2.00;;;;;;;;;;5074818;28;20032;-66
2021/11/08 01:13:24;;;;;;;4.67;1.77;;;;;;;;;;5075157;28;20029;-66
2021/11/08 01:15:51;;;;;;;6.10;2.13;;;;;;;;;;5075136;28;20082;-65
2021/11/08 01:18:19;;;;;;;6.33;1.70;;;;;;;;;;5074966;28;20042;-66
2021/11/08 01:20:46;;;;;;;7.10;1.90;;;;;;;;;;5071103;28;20021;-65
2021/11/08 01:23:15;;;;;;;5.63;1.97;;;;;;;;;;5069704;28;20117;-66
2021/11/08 01:25:42;;;;;;;4.80;1.83;;;;;;;;;;5069923;28;20103;-66
2021/11/08 01:28:10;;;;;;;7.07;1.67;;;;;;;;;;5070073;28;20036;-66
2021/11/08 01:30:38;;;;;;;4.17;1.50;;;;;;;;;;5073370;28;20016;-66
2021/11/08 01:33:10;;;;;;;6.67;1.57;;;;;;;;;;5074315;28;20016;-66
2021/11/08 01:35:43;;;;;;;3.40;1.03;;;;;;;;;;5074279;28;20025;-66
2021/11/08 01:38:24;;;;;;;4.57;1.80;;;;;;;;;;5074628;28;20028;-66
2021/11/08 01:40:51;;;;;;;5.57;1.70;;;;;;;;;;5074928;28;20455;-65
2021/11/08 01:43:20;;;;;;;5.00;1.83;;;;;;;;;;5069988;28;20041;-65
2021/11/08 01:45:47;;;;;;;4.53;1.43;;;;;;;;;;5069304;28;20104;-66
2021/11/08 01:48:13;;;;;;;4.10;1.20;;;;;;;;;;5069546;28;20095;-65
2021/11/08 01:50:43;;;;;;;2.07;0.80;;;;;;;;;;5069416;28;20039;-66
2021/11/08 01:53:11;;;;;;;4.03;1.40;;;;;;;;;;5073207;28;20348;-66
2021/11/08 01:55:37;;;;;;;4.83;1.70;;;;;;;;;;5074784;28;20029;-65
2021/11/08 01:58:05;;;;;;;12.47;2.83;;;;;;;;;;5074276;28;20032;-65
2021/11/08 02:00:33;;;;;;;2.07;0.80;;;;;;;;;;5074541;28;20028;-65
2021/11/08 02:03:01;;;;;;;3.13;0.90;;;;;;;;;;5073998;28;20089;-65
2021/11/08 02:05:28;;;;;;;1.57;0.90;;;;;;;;;;5069420;28;20077;-66
2021/11/08 02:07:56;;;;;;;2.10;0.70;;;;;;;;;;5069118;28;20020;-66
2021/11/08 02:10:24;;;;;;;3.27;0.53;;;;;;;;;;5051656;28;20063;-66
2021/11/08 02:12:51;;;;;;;3.33;1.23;;;;;;;;;;5068936;28;20407;-66
2021/11/08 02:15:19;;;;;;;8.50;1.30;;;;;;;;;;5072788;28;20024;-65
2021/11/08 02:17:48;;;;;;;2.70;0.90;;;;;;;;;;5055919;28;20173;-65
2021/11/08 02:20:16;;;;;;;2.07;0.80;;;;;;;;;;5055906;28;20407;-65
2021/11/08 02:22:44;;;;;;;2.17;0.77;;;;;;;;;;5073402;28;20483;-65
2021/11/08 02:25:14;;;;;;;4.70;0.90;;;;;;;;;;5039519;28;20025;-65
2021/11/08 02:27:43;;;;;;;3.33;0.90;;;;;;;;;;5051616;28;20025;-65
2021/11/08 02:30:11;;;;;;;6.20;0.90;;;;;;;;;;5068655;28;20024;-65
2021/11/08 02:32:39;;;;;;;4.17;1.20;;;;;;;;;;5050279;28;20028;-65
2021/11/08 02:35:09;;;;;;;4.53;1.27;;;;;;;;;;5068462;28;20169;-66
2021/11/08 02:37:36;;;;;;;3.87;1.00;;;;;;;;;;5071991;28;20110;-65
2021/11/08 02:40:04;;;;;;;3.30;1.40;;;;;;;;;;5073724;28;20028;-65
2021/11/08 02:42:33;;;;;;;2.17;1.00;;;;;;;;;;5073135;28;20040;-63
2021/11/08 02:45:02;;;;;;;5.67;1.10;;;;;;;;;;5073478;28;20020;-63
2021/11/08 02:47:31;;;;;;;3.77;1.00;;;;;;;;;;5073485;28;20024;-62
2021/11/08 02:49:59;;;;;;;5.17;0.80;;;;;;;;;;5069353;28;20020;-64
2021/11/08 02:52:27;;;;;;;4.27;1.30;;;;;;;;;;5067749;28;20106;-65
2021/11/08 02:54:54;;;;;;;5.73;0.93;;;;;;;;;;5068387;28;20021;-63
2021/11/08 02:57:24;;;;;;;2.53;0.77;;;;;;;;;;5068016;28;20067;-64
2021/11/08 02:59:52;;;;;;;1.30;0.40;;;;;;;;;;5071387;28;20036;-63
2021/11/08 03:02:20;;;;;;;2.10;1.00;;;;;;;;;;5072925;28;20060;-65
2021/11/08 03:04:50;;;;;;;1.47;0.53;;;;;;;;;;5072866;28;20031;-65
2021/11/08 03:07:17;;;;;;;2.43;1.20;;;;;;;;;;5072429;28;20032;-64
2021/11/08 03:09:50;;;;;;;3.20;0.67;;;;;;;;;;5054852;28;20078;-64
2021/11/08 03:12:21;;;;;;;2.00;0.70;;;;;;;;;;5069024;28;20017;-64
2021/11/08 03:15:08;;;;;;;1.60;0.47;;;;;;;;;;5068194;28;20028;-64
2021/11/08 03:17:41;;;;;;;1.37;0.60;;;;;;;;;;5067476;28;20044;-65
2021/11/08 03:20:10;;;;;;;1.37;0.57;;;;;;;;;;5067686;28;20070;-65
2021/11/08 03:22:47;;;;;;;2.57;0.70;;;;;;;;;;5056690;28;20051;-64
2021/11/08 03:25:26;;;;;;;2.47;1.30;;;;;;;;;;5072794;28;20055;-64
2021/11/08 03:27:57;;;;;;;1.87;0.80;;;;;;;;;;5072795;28;20108;-64
2021/11/08 03:30:27;;;;;;;1.43;0.60;;;;;;;;;;5072696;28;20029;-64
2021/11/08 03:32:56;;;;;;;1.37;0.50;;;;;;;;;;5070648;28;20021;-65
2021/11/08 03:35:25;;;;;;;3.00;0.40;;;;;;;;;;5067044;28;20494;-63
2021/11/08 03:37:56;;;;;;;2.97;0.33;;;;;;;;;;5066938;28;20029;-64
2021/11/08 03:40:28;;;;;;;1.67;0.70;;;;;;;;;;5067518;28;20125;-63
2021/11/08 03:42:58;;;;;;;2.28;0.70;;;;;;;;;;5066957;28;20036;-65
2021/11/08 03:45:25;;;;;;;1.93;0.60;;;;;;;;;;5072095;28;20529;-65
2021/11/08 03:47:54;;;;;;;1.00;0.60;;;;;;;;;;5054942;28;20402;-63
2021/11/08 03:50:22;;;;;;;2.97;0.60;;;;;;;;;;5072030;28;20550;-63
2021/11/08 03:52:49;;;;;;;1.00;0.67;;;;;;;;;;5072541;28;20017;-64
2021/11/08 03:55:17;;;;;;;0.80;0.50;;;;;;;;;;5071676;28;20056;-67
2021/11/08 03:57:48;;;;;;;0.73;0.30;;;;;;;;;;5049165;28;20032;-64
2021/11/08 04:00:15;;;;;;;2.00;0.70;;;;;;;;;;5049342;28;20024;-64
2021/11/08 04:02:43;;;;;;;4.80;0.77;;;;;;;;;;5047078;28;20079;-64
2021/11/08 04:05:12;;;;;;;4.93;0.80;;;;;;;;;;5047189;28;20083;-65
2021/11/08 04:07:39;;;;;;;5.23;1.07;;;;;;;;;;5052263;28;20123;-66
2021/11/08 04:10:09;;;;;;;1.30;0.40;;;;;;;;;;5052225;28;20025;-64
2021/11/08 04:12:37;;;;;;;3.50;0.70;;;;;;;;;;5052316;28;20029;-65
2021/11/08 04:15:10;;;;;;;2.10;0.40;;;;;;;;;;5034112;28;20495;-65
2021/11/08 04:17:45;;;;;;;2.30;0.80;;;;;;;;;;5051128;28;20108;-64
2021/11/08 04:20:17;;;;;;;0.80;0.33;;;;;;;;;;5046963;28;20048;-64
2021/11/08 04:22:46;;;;;;;1.47;0.60;;;;;;;;;;5062335;28;20029;-64
2021/11/08 04:25:14;;;;;;;1.70;0.80;;;;;;;;;;5029141;28;20078;-65
2021/11/08 04:27:42;;;;;;;5.73;0.70;;;;;;;;;;5047386;28;20025;-65
2021/11/08 04:30:09;;;;;;;5.60;0.97;;;;;;;;;;5052715;28;20096;-63
2021/11/08 04:32:45;;;;;;;6.60;0.87;;;;;;;;;;5069592;28;20021;-63
2021/11/08 04:35:17;;;;;;;4.07;0.63;;;;;;;;;;5071112;28;20040;-65
2021/11/08 04:51:32;;;;;;;1.93;0.77;;;;;;;;;;5073733;28;20098;-65
2021/11/08 05:21:29;;;;;;;8.15;0.85;;;;;;;;;;5074932;28;20491;-65
2021/11/08 05:31:57;;;;;;;2.80;0.43;;;;;;;;;;5069654;28;20446;-65
2021/11/08 05:34:25;;;;;;;1.57;0.40;;;;;;;;;;5069287;28;20103;-65
2021/11/08 05:36:51;;;;;;;2.10;0.63;;;;;;;;;;5074266;28;20020;-65
2021/11/08 05:39:18;;;;;;;1.93;0.90;;;;;;;;;;5074826;28;20500;-65
2021/11/08 05:41:46;;;;;;;1.37;0.60;;;;;;;;;;5073998;28;20086;-65
2021/11/08 05:44:13;;;;;;;1.87;0.50;;;;;;;;;;5074495;28;20103;-65
2021/11/08 05:46:39;;;;;;;3.03;0.50;;;;;;;;;;5073496;28;20028;-65
2021/11/08 05:49:06;;;;;;;0.83;0.50;;;;;;;;;;5069394;28;20035;-65
2021/11/08 05:51:33;;;;;;;1.50;0.80;;;;;;;;;;5068920;28;20047;-65
2021/11/08 05:54:00;;;;;;;5.27;0.73;;;;;;;;;;5069081;28;20047;-66
2021/11/08 06:51:00;;;;;;;0.55;0.20;;;;;;;;;;5053377;28;20059;-64
2021/11/08 06:53:29;;;;;;;0.97;0.50;;;;;;;;;;5053220;28;20033;-64
2021/11/08 06:55:58;;;;;;;1.10;0.40;;;;;;;;;;5067932;28;20073;-64
2021/11/08 06:58:26;;;;;;;2.87;0.37;;;;;;;;;;5067579;28;20157;-65
2021/11/08 07:00:54;;;;;;;0.23;0.23;;;;;;;;;;5067792;28;20025;-64
2021/11/08 07:03:21;;;;;;;0.70;0.40;;;;;;;;;;5068127;28;20037;-64
2021/11/08 07:05:48;;;;;;;0.93;0.37;;;;;;;;;;5072212;28;20104;-65
2021/11/08 07:08:15;;;;;;;1.37;0.40;;;;;;;;;;5071816;28;20025;-64
2021/11/08 07:10:42;;;;;;;0.90;0.37;;;;;;;;;;5073286;28;20158;-64
2021/11/08 07:13:08;;;;;;;0.63;0.30;;;;;;;;;;5073226;28;20078;-64
2021/11/08 07:15:36;;;;;;;0.83;0.30;;;;;;;;;;5071581;28;20031;-64
2021/11/08 07:18:03;;;;;;;2.77;0.50;;;;;;;;;;5067552;28;20489;-64
2021/11/08 07:20:31;;;;;;;0.20;0.20;;;;;;;;;;5067141;28;20033;-64
2021/11/08 07:22:58;;;;;;;1.23;0.30;;;;;;;;;;5066840;28;20106;-64
2021/11/08 07:25:25;;;;;;;0.80;0.20;;;;;;;;;;5067392;28;20054;-64
2021/11/08 07:27:52;;;;;;;0.80;0.20;;;;;;;;;;5072682;28;20032;-64
2021/11/08 07:30:23;;;;;;;0.40;0.30;;;;;;;;;;5072511;28;20101;-65
2021/11/08 07:32:50;;;;;;;0.80;0.33;;;;;;;;;;5072532;28;20031;-64
2021/11/08 07:35:17;;;;;;;0.20;0.13;;;;;;;;;;5071355;28;20019;-65
2021/11/08 07:37:44;;;;;;;0.30;0.23;;;;;;;;;;5071258;28;20032;-64
2021/11/08 07:40:11;;;;;;;0.33;0.17;;;;;;;;;;5067237;28;20056;-64
2021/11/08 07:42:38;;;;;;;0.20;0.20;;;;;;;;;;5067172;28;20067;-64
2021/11/08 07:45:05;;;;;;;2.30;0.33;;;;;;;;;;5067002;28;20024;-65
2021/11/08 07:47:32;;;;;;;0.43;0.20;;;;;;;;;;5067225;28;20107;-64
2021/11/08 07:49:58;;;;;;;0.80;0.30;;;;;;;;;;5071650;28;20024;-64
2021/11/08 07:52:25;;;;;;;2.10;0.20;;;;;;;;;;5071591;28;20063;-64
2021/11/08 07:54:52;;;;;;;0.87;0.20;;;;;;;;;;5072420;28;20020;-64
2021/11/08 07:57:19;;;;;;;0.87;0.40;;;;;;;;;;5072288;28;20033;-64
2021/11/08 07:59:46;;;;;;;0.10;0.00;;;;;;;;;;5071580;28;20463;-64
2021/11/08 08:02:13;;;;;;;0.60;0.23;;;;;;;;;;5066816;28;20036;-64
2021/11/08 08:04:40;;;;;;;0.87;0.30;;;;;;;;;;5066539;28;20029;-64
2021/11/08 08:07:07;;;;;;;0.73;0.43;;;;;;;;;;5066283;28;20086;-65
2021/11/08 08:09:34;;;;;;;0.60;0.20;;;;;;;;;;5066513;28;20669;-64
2021/11/08 08:12:00;;;;;;;0.63;0.20;;;;;;;;;;5072142;28;20249;-64
2021/11/08 08:14:27;;;;;;;0.47;0.20;;;;;;;;;;5072000;28;20036;-65
2021/11/08 08:16:54;;;;;;;0.30;0.27;;;;;;;;;;5072052;28;20261;-64
2021/11/08 08:19:21;;;;;;;0.10;0.10;;;;;;;;;;5073615;28;20265;-64
2021/11/08 08:21:49;;;;;;;0.20;0.10;;;;;;;;;;5075599;28;20387;-64
2021/11/08 08:24:15;;;;;;;0.10;0.10;;;;;;;;;;5070537;28;20624;-64
2021/11/08 08:26:43;;;;;;;0.87;0.20;;;;;;;;;;5070862;28;20036;-64
2021/11/08 08:29:11;;;;;;;0.10;0.10;;;;;;;;;;5070328;28;20025;-64
2021/11/08 08:31:39;;;;;;;0.10;0.10;;;;;;;;;;5070613;28;20253;-64
2021/11/08 08:34:06;;;;;;;0.33;0.30;;;;;;;;;;5075662;28;20348;-64
2021/11/08 08:36:33;;;;;;;0.67;0.30;;;;;;;;;;5075274;28;20300;-64
2021/11/08 08:39:00;;;;;;;2.07;0.20;;;;;;;;;;5075713;28;20269;-64
2021/11/08 08:41:27;;;;;;;2.43;0.20;;;;;;;;;;5075737;28;20344;-65
2021/11/08 08:43:54;;;;;;;0.30;0.20;;;;;;;;;;5075009;28;20293;-64
2021/11/08 08:46:21;;;;;;;0.50;0.20;;;;;;;;;;5070010;28;20303;-64
2021/11/08 08:48:49;;;;;;;0.60;0.20;;;;;;;;;;5070273;28;21126;-64
2021/11/08 08:51:15;;;;;;;1.13;0.40;;;;;;;;;;5070063;28;20265;-64
2021/11/08 08:53:42;;;;;;;0.43;0.40;;;;;;;;;;5069801;28;20865;-64
2021/11/08 08:56:09;;;;;;;0.40;0.10;;;;;;;;;;5075011;28;20261;-64
2021/11/08 08:58:38;;;;;;;0.70;0.20;;;;;;;;;;5074925;28;20280;-64
2021/11/08 09:01:05;;;;;;;1.23;0.27;;;;;;;;;;5075512;28;20738;-64
2021/11/08 09:03:32;;;;;;;0.40;0.20;;;;;;;;;;5075069;28;20334;-64
2021/11/08 09:05:58;;;;;;;1.40;0.20;;;;;;;;;;5075187;28;20265;-64
2021/11/08 09:08:25;;;;;;;0.77;0.30;;;;;;;;;;5069720;28;20337;-64
2021/11/08 09:10:52;;;;;;;0.97;0.10;;;;;;;;;;5069662;28;20285;-64
2021/11/08 09:13:19;;;;;;;0.50;0.10;;;;;;;;;;5070023;28;20318;-64
2021/11/08 09:15:47;;;;;;;0.30;0.13;;;;;;;;;;5069096;28;20390;-64
2021/11/08 09:18:15;;;;;;;0.40;0.10;;;;;;;;;;5074178;28;20743;-65
2021/11/08 09:20:44;;;;;;;0.10;0.10;;;;;;;;;;5075272;28;20739;-64
2021/11/08 09:23:12;;;;;;;0.83;0.20;;;;;;;;;;5074559;28;20284;-64
2021/11/08 09:25:39;;;;;;;0.00;0.00;;;;;;;;;;5074608;28;20265;-64
2021/11/08 09:28:06;;;;;;;0.33;0.20;;;;;;;;;;5074707;28;20615;-64
2021/11/08 09:30:40;;;;;;;0.27;0.10;;;;;;;;;;5069077;28;21134;-64
2021/11/08 09:33:07;;;;;;;0.33;0.10;;;;;;;;;;5069450;28;20257;-64
2021/11/08 09:35:37;;;;;;;0.30;0.20;;;;;;;;;;5068494;28;20342;-64
2021/11/08 09:38:06;;;;;;;0.20;0.10;;;;;;;;;;5069326;28;20296;-64
2021/11/08 09:40:33;;;;;;;0.50;0.10;;;;;;;;;;5074212;28;20376;-64
2021/11/08 09:43:01;;;;;;;0.63;0.10;;;;;;;;;;5074598;28;20307;-64
2021/11/08 09:45:28;;;;;;;2.40;0.20;;;;;;;;;;5074718;28;20300;-64
2021/11/08 09:47:55;;;;;;;0.10;0.10;;;;;;;;;;5074721;28;20256;-64
2021/11/08 09:50:24;;;;;;;0.17;0.17;;;;;;;;;;5073854;28;20265;-64
2021/11/08 09:52:51;;;;;;;1.03;0.10;;;;;;;;;;5068991;28;20269;-64
2021/11/08 09:55:20;;;;;;;0.73;0.20;;;;;;;;;;5069179;28;20326;-64
2021/11/08 09:57:47;;;;;;;0.27;0.10;;;;;;;;;;5068655;28;20273;-65
2021/11/08 10:00:21;;;;;;;0.20;0.10;;;;;;;;;;5069004;28;20261;-64
2021/11/08 10:02:53;;;;;;;0.10;0.10;;;;;;;;;;5074035;28;20277;-64
2021/11/08 10:05:21;;;;;;;1.50;0.40;;;;;;;;;;5073544;28;20281;-63
2021/11/08 10:07:49;;;;;;;5.30;1.67;;;;;;;;;;5074308;28;20616;-64
2021/11/08 10:10:16;;;;;;;5.50;1.90;;;;;;;;;;5073944;28;20749;-64
2021/11/08 10:12:43;;;;;;;6.30;2.13;;;;;;;;;;5074128;28;20284;-63
2021/11/08 10:15:10;;;;;;;4.37;1.70;;;;;;;;;;5068489;28;20268;-64
2021/11/08 10:17:37;;;;;;;6.53;2.20;;;;;;;;;;5068683;28;20356;-64
2021/11/08 10:20:04;;;;;;;4.57;1.30;;;;;;;;;;5068414;28;20269;-64
2021/11/08 10:22:32;;;;;;;3.17;1.17;;;;;;;;;;5068298;28;20281;-64
2021/11/08 10:25:01;;;;;;;4.03;0.93;;;;;;;;;;5073274;28;20270;-64
2021/11/08 10:27:29;;;;;;;5.10;1.53;;;;;;;;;;5073307;28;20269;-64
2021/11/08 10:29:56;;;;;;;6.83;1.87;;;;;;;;;;5073563;28;20266;-64
2021/11/08 10:32:23;;;;;;;4.47;1.00;;;;;;;;;;5073081;28;20254;-64
2021/11/08 10:34:52;;;;;;;3.13;0.73;;;;;;;;;;5062450;28;20273;-63
2021/11/08 10:37:29;;;;;;;2.97;1.03;;;;;;;;;;5068279;28;20253;-63
2021/11/08 10:39:57;;;;;;;1.13;0.30;;;;;;;;;;5068128;28;20770;-64
2021/11/08 10:42:25;;;;;;;0.53;0.30;;;;;;;;;;5067882;28;20286;-64
2021/11/08 10:44:53;;;;;;;0.80;0.30;;;;;;;;;;5067923;28;20322;-63
2021/11/08 10:47:21;;;;;;;0.70;0.33;;;;;;;;;;5073654;28;21115;-63
2021/11/08 10:49:48;;;;;;;0.80;0.27;;;;;;;;;;5073132;28;20756;-64
2021/11/08 10:52:18;;;;;;;2.13;0.30;;;;;;;;;;5073577;28;20258;-63
2021/11/08 10:54:48;;;;;;;0.53;0.30;;;;;;;;;;5072993;28;20360;-63
2021/11/08 10:57:18;;;;;;;1.10;0.30;;;;;;;;;;5071906;28;20344;-64
2021/11/08 10:59:49;;;;;;;0.83;0.20;;;;;;;;;;5067732;28;20257;-64
2021/11/08 11:02:17;;;;;;;0.87;0.23;;;;;;;;;;5067836;28;20416;-63
2021/11/08 11:04:47;;;;;;;0.30;0.20;;;;;;;;;;5066973;28;20284;-63
2021/11/08 11:07:24;;;;;;;0.23;0.23;;;;;;;;;;5068174;28;20311;-64
2021/11/08 11:09:52;;;;;;;0.67;0.10;;;;;;;;;;5072855;28;20269;-64
2021/11/08 11:12:18;;;;;;;1.37;0.30;;;;;;;;;;5073173;28;20273;-63
2021/11/08 11:14:50;;;;;;;0.93;0.30;;;;;;;;;;5072740;28;20269;-63
2021/11/08 11:17:22;;;;;;;0.10;0.10;;;;;;;;;;5072918;28;20310;-65
2021/11/08 11:19:49;;;;;;;1.70;0.40;;;;;;;;;;5071162;28;20272;-63
2021/11/08 11:22:19;;;;;;;0.80;0.20;;;;;;;;;;5066948;28;20321;-64
2021/11/08 11:24:48;;;;;;;0.70;0.30;;;;;;;;;;5067262;28;20281;-64
2021/11/08 11:27:28;;;;;;;0.30;0.27;;;;;;;;;;5067966;28;20296;-63
2021/11/08 11:30:07;;;;;;;0.10;0.10;;;;;;;;;;5068514;28;20605;-63
2021/11/08 11:32:34;;;;;;;0.57;0.30;;;;;;;;;;5072736;28;20284;-63
2021/11/08 11:35:01;;;;;;;0.50;0.20;;;;;;;;;;5071754;28;20675;-63
2021/11/08 11:37:29;;;;;;;1.80;0.47;;;;;;;;;;5072355;28;20277;-64
2021/11/08 11:40:07;;;;;;;0.17;0.07;;;;;;;;;;5072305;28;20261;-63
2021/11/08 11:42:45;;;;;;;0.47;0.23;;;;;;;;;;5069631;28;20384;-64
2021/11/08 11:45:11;;;;;;;2.47;0.30;;;;;;;;;;5067022;28;20636;-63
2021/11/08 11:47:39;;;;;;;0.50;0.20;;;;;;;;;;5067208;28;20586;-63
2021/11/08 11:50:06;;;;;;;0.57;0.20;;;;;;;;;;5066754;28;20326;-64
2021/11/08 11:52:35;;;;;;;3.93;0.30;;;;;;;;;;5069663;28;20260;-63
2021/11/08 11:55:02;;;;;;;0.27;0.27;;;;;;;;;;5071610;28;20265;-63
2021/11/08 11:57:28;;;;;;;1.20;0.17;;;;;;;;;;5072200;28;20261;-64
2021/11/08 11:59:56;;;;;;;0.53;0.33;;;;;;;;;;5072088;28;20280;-63
2021/11/08 12:02:24;;;;;;;0.10;0.07;;;;;;;;;;5071987;28;20659;-63
2021/11/08 12:04:51;;;;;;;0.40;0.20;;;;;;;;;;5068249;28;20711;-63
2021/11/08 12:07:17;;;;;;;0.57;0.37;;;;;;;;;;5066735;28;20258;-64
2021/11/08 12:09:44;;;;;;;0.20;0.10;;;;;;;;;;5066777;28;20269;-63
2021/11/08 12:12:21;;;;;;;0.27;0.10;;;;;;;;;;5066465;28;20287;-63
2021/11/08 12:14:55;;;;;;;1.00;0.20;;;;;;;;;;5069321;28;20338;-63
2021/11/08 12:17:22;;;;;;;1.43;0.33;;;;;;;;;;5072016;28;20778;-63
2021/11/08 12:19:51;;;;;;;0.77;0.20;;;;;;;;;;5072269;28;20614;-63
2021/11/08 12:22:19;;;;;;;0.57;0.20;;;;;;;;;;5070926;28;20777;-63
2021/11/08 12:25:03;;;;;;;2.47;0.50;;;;;;;;;;5071981;28;20307;-65
2021/11/08 12:27:35;;;;;;;1.83;0.50;;;;;;;;;;5067760;28;20245;-63
2021/11/08 12:30:08;;;;;;;4.20;1.10;;;;;;;;;;5065811;28;20639;-64
2021/11/08 12:32:52;;;;;;;1.93;0.63;;;;;;;;;;5066380;28;20662;-63
2021/11/08 12:35:24;;;;;;;2.13;0.87;;;;;;;;;;5066112;28;20288;-64
2021/11/08 12:37:51;;;;;;;2.93;1.00;;;;;;;;;;5071146;28;20358;-63
2021/11/08 12:40:20;;;;;;;8.07;1.50;;;;;;;;;;5071683;28;20607;-63
2021/11/08 12:42:49;;;;;;;7.17;1.47;;;;;;;;;;5071594;28;20755;-64
2021/11/08 12:45:23;;;;;;;2.30;0.97;;;;;;;;;;5071687;28;20394;-63
2021/11/08 12:48:19;;;;;;;1.80;0.67;;;;;;;;;;5071885;28;20257;-63
2021/11/08 12:50:48;;;;;;;1.17;0.63;;;;;;;;;;5046896;28;20281;-63
2021/11/08 12:53:24;;;;;;;2.33;0.40;;;;;;;;;;5066432;28;20024;-63
2021/11/08 12:55:51;;;;;;;17.90;2.27;;;;;;;;;;5066309;28;20261;-63
2021/11/08 12:58:18;;;;;;;1.17;0.40;;;;;;;;;;5067294;28;20281;-63
2021/11/08 13:00:52;;;;;;;2.53;0.67;;;;;;;;;;5071814;28;20265;-63
2021/11/08 13:03:30;;;;;;;1.37;0.60;;;;;;;;;;5071326;28;20774;-63
2021/11/08 13:05:58;;;;;;;1.10;0.53;;;;;;;;;;5074122;28;20758;-63
2021/11/08 13:08:29;;;;;;;1.57;0.50;;;;;;;;;;5075142;28;20265;-63
2021/11/08 13:11:15;;;;;;;3.90;0.90;;;;;;;;;;5072621;28;20293;-63
2021/11/08 13:13:59;;;;;;;2.30;1.00;;;;;;;;;;5069808;28;20268;-63
2021/11/08 13:16:36;;;;;;;1.83;1.03;;;;;;;;;;5069904;28;20268;-63
2021/11/08 13:19:06;;;;;;;4.03;1.10;;;;;;;;;;5069320;28;20273;-63
2021/11/08 13:21:34;;;;;;;2.57;0.93;;;;;;;;;;5073291;28;20728;-63
2021/11/08 13:24:01;;;;;;;3.93;1.00;;;;;;;;;;5074743;28;20390;-63
